sensor_id;sensor_type;location;lat;lon;timestamp;pressure;altitude;pressure_sealevel;temperature;humidity
20394;BME280;10356;50.544;9.642;2022-10-03T00:01:11;99044.53;;;7.01;100.00
20394;BME280;10356;50.544;9.642;2022-10-03T00:03:44;99047.13;;;7.01;100.00
20394;BME280;10356;50.544;9.642;2022-10-03T00:06:24;99049.66;;;7.03;100.00
20394;BME280;10356;50.544;9.642;2022-10-03T00:09:04;99057.34;;;7.04;100.00
20394;BME280;10356;50.544;9.642;2022-10-03T00:11:46;99059.19;;;7.02;100.00
20394;BME280;10356;50.544;9.642;2022-10-03T00:14:26;99061.84;;;7.01;100.00
20394;BME280;10356;50.544;9.642;2022-10-03T00:17:02;99059.47;;;6.96;100.00
20394;BME280;10356;50.544;9.642;2022-10-03T00:19:38;99056.44;;;6.88;100.00
20394;BME280;10356;50.544;9.642;2022-10-03T00:22:17;99061.75;;;6.85;100.00
20394;BME280;10356;50.544;9.642;2022-10-03T00:24:58;99060.47;;;6.76;100.00
20394;BME280;10356;50.544;9.642;2022-10-03T00:27:33;99070.13;;;6.73;100.00
20394;BME280;10356;50.544;9.642;2022-10-03T00:30:16;99070.44;;;6.67;100.00
20394;BME280;10356;50.544;9.642;2022-10-03T00:32:59;99071.66;;;6.60;100.00
20394;BME280;10356;50.544;9.642;2022-10-03T00:35:45;99077.25;;;6.51;100.00
20394;BME280;10356;50.544;9.642;2022-10-03T00:38:26;99074.91;;;6.46;100.00
20394;BME280;10356;50.544;9.642;2022-10-03T00:41:11;99074.19;;;6.43;100.00
20394;BME280;10356;50.544;9.642;2022-10-03T00:43:58;99086.53;;;6.38;100.00
20394;BME280;10356;50.544;9.642;2022-10-03T00:46:49;99082.41;;;6.34;100.00
20394;BME280;10356;50.544;9.642;2022-10-03T00:52:24;99085.13;;;6.31;100.00
20394;BME280;10356;50.544;9.642;2022-10-03T00:55:05;99083.66;;;6.25;100.00
20394;BME280;10356;50.544;9.642;2022-10-03T00:57:56;99089.97;;;6.20;100.00
20394;BME280;10356;50.544;9.642;2022-10-03T01:00:28;99093.66;;;6.14;100.00
20394;BME280;10356;50.544;9.642;2022-10-03T01:03:14;99085.13;;;6.12;100.00
20394;BME280;10356;50.544;9.642;2022-10-03T01:05:50;99085.97;;;6.13;100.00
20394;BME280;10356;50.544;9.642;2022-10-03T01:08:36;99083.47;;;6.11;100.00
20394;BME280;10356;50.544;9.642;2022-10-03T01:11:17;99078.50;;;6.07;100.00
20394;BME280;10356;50.544;9.642;2022-10-03T01:13:56;99071.88;;;6.01;100.00
20394;BME280;10356;50.544;9.642;2022-10-03T01:16:32;99080.53;;;6.00;100.00
20394;BME280;10356;50.544;9.642;2022-10-03T01:19:20;99078.94;;;5.98;100.00
20394;BME280;10356;50.544;9.642;2022-10-03T01:22:03;99077.25;;;5.97;100.00
20394;BME280;10356;50.544;9.642;2022-10-03T01:24:48;99080.88;;;5.92;100.00
20394;BME280;10356;50.544;9.642;2022-10-03T01:27:18;99080.13;;;5.90;100.00
20394;BME280;10356;50.544;9.642;2022-10-03T01:29:52;99076.06;;;5.85;100.00
20394;BME280;10356;50.544;9.642;2022-10-03T01:32:43;99084.75;;;5.82;100.00
20394;BME280;10356;50.544;9.642;2022-10-03T01:35:21;99085.69;;;5.81;100.00
20394;BME280;10356;50.544;9.642;2022-10-03T01:37:56;99088.38;;;5.78;100.00
20394;BME280;10356;50.544;9.642;2022-10-03T01:40:28;99086.16;;;5.71;100.00
20394;BME280;10356;50.544;9.642;2022-10-03T01:43:05;99097.47;;;5.68;100.00
20394;BME280;10356;50.544;9.642;2022-10-03T01:45:43;99098.50;;;5.64;100.00
20394;BME280;10356;50.544;9.642;2022-10-03T01:48:20;99091.66;;;5.63;100.00
20394;BME280;10356;50.544;9.642;2022-10-03T01:50:52;99102.00;;;5.63;100.00
20394;BME280;10356;50.544;9.642;2022-10-03T01:53:28;99105.38;;;5.65;100.00
20394;BME280;10356;50.544;9.642;2022-10-03T01:56:02;99103.59;;;5.66;100.00
20394;BME280;10356;50.544;9.642;2022-10-03T01:58:44;99105.38;;;5.65;100.00
20394;BME280;10356;50.544;9.642;2022-10-03T02:01:20;99113.75;;;5.70;100.00
20394;BME280;10356;50.544;9.642;2022-10-03T02:03:54;99114.78;;;5.66;100.00
20394;BME280;10356;50.544;9.642;2022-10-03T02:06:27;99115.06;;;5.60;100.00
20394;BME280;10356;50.544;9.642;2022-10-03T02:09:05;99114.44;;;5.55;100.00
20394;BME280;10356;50.544;9.642;2022-10-03T02:11:36;99106.03;;;5.50;100.00
20394;BME280;10356;50.544;9.642;2022-10-03T02:14:14;99114.75;;;5.48;100.00
20394;BME280;10356;50.544;9.642;2022-10-03T02:16:54;99121.69;;;5.47;100.00
20394;BME280;10356;50.544;9.642;2022-10-03T02:19:25;99123.59;;;5.42;100.00
20394;BME280;10356;50.544;9.642;2022-10-03T02:21:55;99137.44;;;5.41;100.00
20394;BME280;10356;50.544;9.642;2022-10-03T02:24:36;99145.25;;;5.40;100.00
20394;BME280;10356;50.544;9.642;2022-10-03T02:30:16;99140.53;;;5.49;100.00
20394;BME280;10356;50.544;9.642;2022-10-03T02:39:34;99149.06;;;5.51;100.00
20394;BME280;10356;50.544;9.642;2022-10-03T02:42:25;99150.16;;;5.46;100.00
20394;BME280;10356;50.544;9.642;2022-10-03T02:48:14;99151.25;;;5.40;100.00
20394;BME280;10356;50.544;9.642;2022-10-03T02:51:10;99148.81;;;5.37;100.00
20394;BME280;10356;50.544;9.642;2022-10-03T02:57:12;99147.44;;;5.29;100.00
20394;BME280;10356;50.544;9.642;2022-10-03T03:00:05;99155.38;;;5.24;100.00
20394;BME280;10356;50.544;9.642;2022-10-03T03:06:10;99163.53;;;5.15;100.00
20394;BME280;10356;50.544;9.642;2022-10-03T03:08:59;99171.22;;;5.17;100.00
20394;BME280;10356;50.544;9.642;2022-10-03T03:12:07;99172.00;;;5.19;100.00
20394;BME280;10356;50.544;9.642;2022-10-03T03:15:25;99176.31;;;5.18;100.00
20394;BME280;10356;50.544;9.642;2022-10-03T03:18:03;99179.75;;;5.19;100.00
20394;BME280;10356;50.544;9.642;2022-10-03T03:20:43;99180.63;;;5.18;100.00
20394;BME280;10356;50.544;9.642;2022-10-03T03:23:38;99178.19;;;5.15;100.00
20394;BME280;10356;50.544;9.642;2022-10-03T03:26:28;99177.41;;;5.13;100.00
20394;BME280;10356;50.544;9.642;2022-10-03T03:29:08;99178.47;;;5.07;100.00
20394;BME280;10356;50.544;9.642;2022-10-03T03:31:45;99174.31;;;5.03;100.00
20394;BME280;10356;50.544;9.642;2022-10-03T03:34:21;99180.47;;;5.00;100.00
20394;BME280;10356;50.544;9.642;2022-10-03T03:36:56;99181.53;;;4.95;100.00
20394;BME280;10356;50.544;9.642;2022-10-03T03:39:42;99173.22;;;4.88;100.00
20394;BME280;10356;50.544;9.642;2022-10-03T03:42:23;99172.63;;;4.82;100.00
20394;BME280;10356;50.544;9.642;2022-10-03T03:45:10;99188.13;;;4.82;100.00
20394;BME280;10356;50.544;9.642;2022-10-03T03:47:55;99177.09;;;4.77;100.00
20394;BME280;10356;50.544;9.642;2022-10-03T03:50:34;99189.44;;;4.70;100.00
20394;BME280;10356;50.544;9.642;2022-10-03T03:56:26;99195.66;;;4.65;100.00
20394;BME280;10356;50.544;9.642;2022-10-03T03:59:06;99197.34;;;4.66;100.00
20394;BME280;10356;50.544;9.642;2022-10-03T04:01:55;99197.22;;;4.69;100.00
20394;BME280;10356;50.544;9.642;2022-10-03T04:04:44;99192.19;;;4.66;100.00
20394;BME280;10356;50.544;9.642;2022-10-03T04:07:27;99187.19;;;4.61;100.00
20394;BME280;10356;50.544;9.642;2022-10-03T04:10:06;99190.88;;;4.56;100.00
20394;BME280;10356;50.544;9.642;2022-10-03T04:12:52;99191.88;;;4.52;100.00
20394;BME280;10356;50.544;9.642;2022-10-03T04:15:35;99190.41;;;4.45;100.00
20394;BME280;10356;50.544;9.642;2022-10-03T04:18:27;99192.22;;;4.43;100.00
20394;BME280;10356;50.544;9.642;2022-10-03T04:24:33;99200.25;;;4.35;100.00
20394;BME280;10356;50.544;9.642;2022-10-03T04:30:04;99201.97;;;4.35;100.00
20394;BME280;10356;50.544;9.642;2022-10-03T04:32:45;99202.81;;;4.35;100.00
20394;BME280;10356;50.544;9.642;2022-10-03T04:35:32;99210.50;;;4.37;100.00
20394;BME280;10356;50.544;9.642;2022-10-03T04:38:10;99198.50;;;4.36;100.00
20394;BME280;10356;50.544;9.642;2022-10-03T04:40:44;99203.53;;;4.39;100.00
20394;BME280;10356;50.544;9.642;2022-10-03T04:43:22;99195.88;;;4.37;100.00
20394;BME280;10356;50.544;9.642;2022-10-03T04:46:02;99195.03;;;4.37;100.00
20394;BME280;10356;50.544;9.642;2022-10-03T04:48:35;99190.78;;;4.36;100.00
20394;BME280;10356;50.544;9.642;2022-10-03T04:51:11;99200.19;;;4.37;100.00
20394;BME280;10356;50.544;9.642;2022-10-03T04:53:49;99190.31;;;4.48;100.00
20394;BME280;10356;50.544;9.642;2022-10-03T04:56:33;99192.72;;;4.52;100.00
20394;BME280;10356;50.544;9.642;2022-10-03T04:59:25;99197.22;;;4.47;100.00
20394;BME280;10356;50.544;9.642;2022-10-03T05:01:58;99201.75;;;4.41;100.00
20394;BME280;10356;50.544;9.642;2022-10-03T05:04:31;99196.78;;;4.36;100.00
20394;BME280;10356;50.544;9.642;2022-10-03T05:07:06;99202.25;;;4.27;100.00
20394;BME280;10356;50.544;9.642;2022-10-03T05:09:44;99204.41;;;4.16;100.00
20394;BME280;10356;50.544;9.642;2022-10-03T05:12:18;99200.13;;;4.15;100.00
20394;BME280;10356;50.544;9.642;2022-10-03T05:15:13;99203.72;;;4.11;100.00
20394;BME280;10356;50.544;9.642;2022-10-03T05:17:46;99218.19;;;3.92;100.00
20394;BME280;10356;50.544;9.642;2022-10-03T05:20:23;99212.81;;;3.98;100.00
20394;BME280;10356;50.544;9.642;2022-10-03T05:23:04;99214.19;;;4.06;100.00
20394;BME280;10356;50.544;9.642;2022-10-03T05:25:43;99213.97;;;4.12;100.00
20394;BME280;10356;50.544;9.642;2022-10-03T05:28:18;99208.72;;;4.15;100.00
20394;BME280;10356;50.544;9.642;2022-10-03T05:30:51;99219.91;;;4.14;100.00
20394;BME280;10356;50.544;9.642;2022-10-03T05:33:26;99224.75;;;4.23;100.00
20394;BME280;10356;50.544;9.642;2022-10-03T05:36:05;99227.28;;;4.25;100.00
20394;BME280;10356;50.544;9.642;2022-10-03T05:38:56;99230.41;;;4.33;100.00
20394;BME280;10356;50.544;9.642;2022-10-03T05:41:26;99230.03;;;4.44;100.00
20394;BME280;10356;50.544;9.642;2022-10-03T05:44:01;99233.94;;;4.54;100.00
20394;BME280;10356;50.544;9.642;2022-10-03T05:46:38;99228.56;;;4.60;100.00
20394;BME280;10356;50.544;9.642;2022-10-03T05:49:21;99233.34;;;4.69;100.00
20394;BME280;10356;50.544;9.642;2022-10-03T05:52:05;99243.69;;;4.69;100.00
20394;BME280;10356;50.544;9.642;2022-10-03T05:54:49;99246.00;;;4.76;100.00
20394;BME280;10356;50.544;9.642;2022-10-03T05:57:32;99242.97;;;4.87;100.00
20394;BME280;10356;50.544;9.642;2022-10-03T06:00:05;99245.22;;;4.96;100.00
20394;BME280;10356;50.544;9.642;2022-10-03T06:02:49;99245.75;;;5.04;100.00
20394;BME280;10356;50.544;9.642;2022-10-03T06:05:32;99250.16;;;5.02;100.00
20394;BME280;10356;50.544;9.642;2022-10-03T06:08:23;99253.09;;;5.15;100.00
20394;BME280;10356;50.544;9.642;2022-10-03T06:11:00;99254.41;;;5.25;100.00
20394;BME280;10356;50.544;9.642;2022-10-03T06:13:40;99260.19;;;5.31;100.00
20394;BME280;10356;50.544;9.642;2022-10-03T06:16:24;99252.75;;;5.44;100.00
20394;BME280;10356;50.544;9.642;2022-10-03T06:19:20;99250.66;;;5.53;100.00
20394;BME280;10356;50.544;9.642;2022-10-03T06:22:43;99256.03;;;5.69;100.00
20394;BME280;10356;50.544;9.642;2022-10-03T06:31:46;99269.03;;;6.08;100.00
20394;BME280;10356;50.544;9.642;2022-10-03T06:34:33;99274.72;;;6.16;100.00
20394;BME280;10356;50.544;9.642;2022-10-03T06:37:31;99279.41;;;6.26;100.00
20394;BME280;10356;50.544;9.642;2022-10-03T06:40:33;99277.91;;;6.41;100.00
20394;BME280;10356;50.544;9.642;2022-10-03T06:43:29;99274.78;;;6.53;100.00
20394;BME280;10356;50.544;9.642;2022-10-03T06:46:31;99276.50;;;6.72;100.00
20394;BME280;10356;50.544;9.642;2022-10-03T06:49:28;99272.22;;;6.90;100.00
20394;BME280;10356;50.544;9.642;2022-10-03T06:58:12;99282.94;;;7.37;100.00
20394;BME280;10356;50.544;9.642;2022-10-03T07:00:59;99285.72;;;7.51;100.00
20394;BME280;10356;50.544;9.642;2022-10-03T07:03:48;99291.13;;;7.63;100.00
20394;BME280;10356;50.544;9.642;2022-10-03T07:06:37;99294.66;;;7.80;100.00
20394;BME280;10356;50.544;9.642;2022-10-03T07:09:28;99284.44;;;7.94;100.00
20394;BME280;10356;50.544;9.642;2022-10-03T07:12:33;99290.53;;;8.10;100.00
20394;BME280;10356;50.544;9.642;2022-10-03T07:15:20;99295.25;;;8.19;100.00
20394;BME280;10356;50.544;9.642;2022-10-03T07:18:10;99287.31;;;8.22;100.00
20394;BME280;10356;50.544;9.642;2022-10-03T07:21:03;99287.59;;;8.33;100.00
20394;BME280;10356;50.544;9.642;2022-10-03T07:24:10;99294.09;;;8.41;100.00
20394;BME280;10356;50.544;9.642;2022-10-03T07:26:56;99289.88;;;8.56;100.00
20394;BME280;10356;50.544;9.642;2022-10-03T07:29:51;99299.44;;;8.71;100.00
20394;BME280;10356;50.544;9.642;2022-10-03T07:32:53;99293.66;;;8.82;100.00
20394;BME280;10356;50.544;9.642;2022-10-03T07:35:39;99302.97;;;9.01;100.00
20394;BME280;10356;50.544;9.642;2022-10-03T07:38:52;99304.75;;;9.16;100.00
20394;BME280;10356;50.544;9.642;2022-10-03T07:41:50;99303.31;;;9.26;100.00
20394;BME280;10356;50.544;9.642;2022-10-03T07:44:51;99307.66;;;9.42;100.00
20394;BME280;10356;50.544;9.642;2022-10-03T07:47:53;99308.47;;;9.58;100.00
20394;BME280;10356;50.544;9.642;2022-10-03T07:50:40;99304.44;;;9.68;100.00
20394;BME280;10356;50.544;9.642;2022-10-03T07:53:34;99313.31;;;9.79;100.00
20394;BME280;10356;50.544;9.642;2022-10-03T07:56:17;99314.94;;;9.96;100.00
20394;BME280;10356;50.544;9.642;2022-10-03T07:59:10;99313.75;;;10.01;100.00
20394;BME280;10356;50.544;9.642;2022-10-03T08:01:55;99322.84;;;9.94;100.00
20394;BME280;10356;50.544;9.642;2022-10-03T08:04:43;99328.88;;;10.10;100.00
20394;BME280;10356;50.544;9.642;2022-10-03T08:07:33;99322.59;;;10.29;100.00
20394;BME280;10356;50.544;9.642;2022-10-03T08:13:34;99333.13;;;10.41;100.00
20394;BME280;10356;50.544;9.642;2022-10-03T08:16:21;99329.63;;;10.56;100.00
20394;BME280;10356;50.544;9.642;2022-10-03T08:19:01;99333.13;;;10.69;100.00
20394;BME280;10356;50.544;9.642;2022-10-03T08:21:43;99339.19;;;10.84;100.00
20394;BME280;10356;50.544;9.642;2022-10-03T08:24:48;99334.81;;;10.98;100.00
20394;BME280;10356;50.544;9.642;2022-10-03T08:27:34;99347.84;;;11.13;100.00
20394;BME280;10356;50.544;9.642;2022-10-03T08:30:20;99344.38;;;11.26;100.00
20394;BME280;10356;50.544;9.642;2022-10-03T08:32:56;99341.28;;;11.34;100.00
20394;BME280;10356;50.544;9.642;2022-10-03T08:35:42;99352.44;;;11.36;100.00
20394;BME280;10356;50.544;9.642;2022-10-03T08:38:42;99350.88;;;11.60;100.00
20394;BME280;10356;50.544;9.642;2022-10-03T08:41:52;99352.34;;;11.78;100.00
20394;BME280;10356;50.544;9.642;2022-10-03T08:47:41;99348.34;;;11.99;97.18
20394;BME280;10356;50.544;9.642;2022-10-03T08:50:36;99342.84;;;12.16;97.80
20394;BME280;10356;50.544;9.642;2022-10-03T08:53:28;99344.13;;;12.23;96.36
20394;BME280;10356;50.544;9.642;2022-10-03T08:56:02;99347.78;;;12.33;95.80
20394;BME280;10356;50.544;9.642;2022-10-03T09:02:15;99333.69;;;12.61;94.39
20394;BME280;10356;50.544;9.642;2022-10-03T09:05:18;99341.59;;;12.85;94.75
20394;BME280;10356;50.544;9.642;2022-10-03T09:08:18;99333.03;;;12.83;93.66
20394;BME280;10356;50.544;9.642;2022-10-03T09:14:17;99330.09;;;13.00;93.53
20394;BME280;10356;50.544;9.642;2022-10-03T09:17:02;99319.91;;;13.33;93.71
20394;BME280;10356;50.544;9.642;2022-10-03T09:19:57;99329.09;;;13.62;90.88
20394;BME280;10356;50.544;9.642;2022-10-03T09:22:58;99335.41;;;13.83;88.92
20394;BME280;10356;50.544;9.642;2022-10-03T09:25:37;99345.34;;;14.02;87.40
20394;BME280;10356;50.544;9.642;2022-10-03T09:31:23;99344.94;;;13.84;90.65
20394;BME280;10356;50.544;9.642;2022-10-03T09:34:06;99348.00;;;14.37;89.94
20394;BME280;10356;50.544;9.642;2022-10-03T09:36:59;99350.41;;;14.51;86.11
20394;BME280;10356;50.544;9.642;2022-10-03T09:42:56;99350.66;;;14.48;82.02
20394;BME280;10356;50.544;9.642;2022-10-03T09:48:58;99350.09;;;14.77;86.73
20394;BME280;10356;50.544;9.642;2022-10-03T09:51:49;99344.75;;;15.12;84.30
20394;BME280;10356;50.544;9.642;2022-10-03T09:57:42;99344.03;;;14.99;83.29
20394;BME280;10356;50.544;9.642;2022-10-03T10:00:19;99338.53;;;14.91;82.18
20394;BME280;10356;50.544;9.642;2022-10-03T10:03:36;99348.81;;;14.94;79.97
20394;BME280;10356;50.544;9.642;2022-10-03T10:06:33;99352.13;;;14.74;81.62
20394;BME280;10356;50.544;9.642;2022-10-03T10:12:46;99344.44;;;14.49;82.69
20394;BME280;10356;50.544;9.642;2022-10-03T10:15:50;99346.56;;;14.32;83.94
20394;BME280;10356;50.544;9.642;2022-10-03T10:18:49;99350.06;;;14.44;84.77
20394;BME280;10356;50.544;9.642;2022-10-03T10:21:45;99342.06;;;14.46;83.41
20394;BME280;10356;50.544;9.642;2022-10-03T10:24:43;99339.44;;;14.57;83.77
20394;BME280;10356;50.544;9.642;2022-10-03T10:33:56;99329.47;;;14.73;82.34
20394;BME280;10356;50.544;9.642;2022-10-03T10:37:00;99330.19;;;14.97;80.30
20394;BME280;10356;50.544;9.642;2022-10-03T10:39:55;99324.22;;;14.95;78.43
20394;BME280;10356;50.544;9.642;2022-10-03T10:43:02;99323.75;;;15.12;78.07
20394;BME280;10356;50.544;9.642;2022-10-03T10:46:01;99325.13;;;15.27;78.89
20394;BME280;10356;50.544;9.642;2022-10-03T10:52:02;99316.94;;;15.43;75.51
20394;BME280;10356;50.544;9.642;2022-10-03T11:01:26;99325.09;;;15.71;73.06
20394;BME280;10356;50.544;9.642;2022-10-03T11:04:38;99311.75;;;15.63;74.13
20394;BME280;10356;50.544;9.642;2022-10-03T11:07:45;99321.97;;;15.66;72.87
20394;BME280;10356;50.544;9.642;2022-10-03T11:10:34;99319.06;;;15.49;74.34
20394;BME280;10356;50.544;9.642;2022-10-03T11:16:50;99315.47;;;15.50;73.52
20394;BME280;10356;50.544;9.642;2022-10-03T11:19:55;99317.00;;;15.41;73.98
20394;BME280;10356;50.544;9.642;2022-10-03T11:23:01;99319.63;;;15.63;72.12
20394;BME280;10356;50.544;9.642;2022-10-03T11:26:20;99311.44;;;15.77;70.25
20394;BME280;10356;50.544;9.642;2022-10-03T11:35:49;99301.56;;;16.02;69.39
20394;BME280;10356;50.544;9.642;2022-10-03T11:38:20;99299.34;;;16.07;69.89
20394;BME280;10356;50.544;9.642;2022-10-03T11:40:57;99305.78;;;16.14;68.57
20394;BME280;10356;50.544;9.642;2022-10-03T11:43:55;99302.25;;;16.04;66.69
20394;BME280;10356;50.544;9.642;2022-10-03T11:46:38;99300.25;;;16.17;68.23
20394;BME280;10356;50.544;9.642;2022-10-03T11:49:25;99294.06;;;16.18;66.09
20394;BME280;10356;50.544;9.642;2022-10-03T11:52:02;99297.06;;;16.13;64.71
20394;BME280;10356;50.544;9.642;2022-10-03T11:54:36;99300.03;;;16.20;64.54
20394;BME280;10356;50.544;9.642;2022-10-03T11:57:08;99297.38;;;15.99;65.78
20394;BME280;10356;50.544;9.642;2022-10-03T12:02:42;99303.25;;;16.12;64.91
20394;BME280;10356;50.544;9.642;2022-10-03T12:05:23;99287.06;;;16.28;65.54
20394;BME280;10356;50.544;9.642;2022-10-03T12:08:02;99294.63;;;16.42;64.44
20394;BME280;10356;50.544;9.642;2022-10-03T12:11:02;99289.91;;;16.45;64.21
20394;BME280;10356;50.544;9.642;2022-10-03T12:13:37;99282.88;;;16.46;64.34
20394;BME280;10356;50.544;9.642;2022-10-03T12:16:13;99283.81;;;16.45;63.81
20394;BME280;10356;50.544;9.642;2022-10-03T12:18:51;99272.81;;;16.51;63.57
20394;BME280;10356;50.544;9.642;2022-10-03T12:21:26;99282.69;;;16.38;62.88
20394;BME280;10356;50.544;9.642;2022-10-03T12:24:03;99284.19;;;16.40;62.72
20394;BME280;10356;50.544;9.642;2022-10-03T12:26:44;99280.94;;;16.48;61.83
20394;BME280;10356;50.544;9.642;2022-10-03T12:29:15;99278.84;;;16.42;62.97
20394;BME280;10356;50.544;9.642;2022-10-03T12:31:49;99282.22;;;16.33;63.37
20394;BME280;10356;50.544;9.642;2022-10-03T12:34:32;99275.66;;;16.18;63.33
20394;BME280;10356;50.544;9.642;2022-10-03T12:37:23;99273.19;;;16.05;62.72
20394;BME280;10356;50.544;9.642;2022-10-03T12:39:59;99272.75;;;16.21;64.41
20394;BME280;10356;50.544;9.642;2022-10-03T12:42:33;99278.66;;;16.13;63.70
20394;BME280;10356;50.544;9.642;2022-10-03T12:45:06;99281.84;;;15.96;62.92
20394;BME280;10356;50.544;9.642;2022-10-03T12:47:49;99282.03;;;15.83;63.85
20394;BME280;10356;50.544;9.642;2022-10-03T12:50:36;99283.75;;;15.94;62.50
20394;BME280;10356;50.544;9.642;2022-10-03T12:53:26;99282.53;;;15.98;62.47
20394;BME280;10356;50.544;9.642;2022-10-03T12:56:03;99280.50;;;16.02;62.68
20394;BME280;10356;50.544;9.642;2022-10-03T12:58:42;99271.66;;;16.03;62.99
20394;BME280;10356;50.544;9.642;2022-10-03T13:01:20;99274.75;;;16.08;64.50
20394;BME280;10356;50.544;9.642;2022-10-03T13:03:52;99273.56;;;16.01;63.39
20394;BME280;10356;50.544;9.642;2022-10-03T13:06:42;99270.28;;;16.08;63.16
20394;BME280;10356;50.544;9.642;2022-10-03T13:09:21;99272.50;;;16.03;63.85
20394;BME280;10356;50.544;9.642;2022-10-03T13:12:01;99269.50;;;16.08;63.56
20394;BME280;10356;50.544;9.642;2022-10-03T13:17:58;99264.34;;;15.85;64.80
20394;BME280;10356;50.544;9.642;2022-10-03T13:20:33;99270.31;;;15.87;66.43
20394;BME280;10356;50.544;9.642;2022-10-03T13:23:04;99264.84;;;15.79;67.68
20394;BME280;10356;50.544;9.642;2022-10-03T13:25:40;99266.25;;;15.83;67.19
20394;BME280;10356;50.544;9.642;2022-10-03T13:28:13;99261.00;;;16.04;67.95
20394;BME280;10356;50.544;9.642;2022-10-03T13:30:48;99265.19;;;16.07;66.73
20394;BME280;10356;50.544;9.642;2022-10-03T13:33:20;99270.63;;;16.15;66.98
20394;BME280;10356;50.544;9.642;2022-10-03T13:35:49;99268.78;;;16.06;68.52
20394;BME280;10356;50.544;9.642;2022-10-03T13:38:46;99264.78;;;16.11;66.42
20394;BME280;10356;50.544;9.642;2022-10-03T13:41:28;99267.44;;;16.32;65.61
20394;BME280;10356;50.544;9.642;2022-10-03T13:43:58;99267.47;;;16.21;65.38
20394;BME280;10356;50.544;9.642;2022-10-03T13:46:32;99261.59;;;16.08;65.09
20394;BME280;10356;50.544;9.642;2022-10-03T13:49:09;99261.78;;;16.16;64.55
20394;BME280;10356;50.544;9.642;2022-10-03T13:51:46;99254.00;;;16.14;65.18
20394;BME280;10356;50.544;9.642;2022-10-03T13:54:20;99257.84;;;16.10;66.13
20394;BME280;10356;50.544;9.642;2022-10-03T13:56:58;99262.31;;;16.10;65.81
20394;BME280;10356;50.544;9.642;2022-10-03T13:59:38;99258.97;;;16.08;64.93
20394;BME280;10356;50.544;9.642;2022-10-03T14:02:31;99253.94;;;16.05;64.54
20394;BME280;10356;50.544;9.642;2022-10-03T14:08:11;99248.13;;;16.22;64.44
20394;BME280;10356;50.544;9.642;2022-10-03T14:10:57;99250.75;;;16.22;65.00
20394;BME280;10356;50.544;9.642;2022-10-03T14:13:39;99255.69;;;16.15;64.92
20394;BME280;10356;50.544;9.642;2022-10-03T14:16:14;99253.50;;;16.20;65.78
20394;BME280;10356;50.544;9.642;2022-10-03T14:18:51;99249.88;;;16.12;65.80
20394;BME280;10356;50.544;9.642;2022-10-03T14:21:52;99254.28;;;16.11;64.94
20394;BME280;10356;50.544;9.642;2022-10-03T14:24:35;99247.41;;;16.20;64.83
20394;BME280;10356;50.544;9.642;2022-10-03T14:27:15;99245.22;;;16.25;65.49
20394;BME280;10356;50.544;9.642;2022-10-03T14:29:57;99242.59;;;16.25;65.31
20394;BME280;10356;50.544;9.642;2022-10-03T14:32:33;99242.41;;;16.17;65.76
20394;BME280;10356;50.544;9.642;2022-10-03T14:35:08;99243.56;;;16.24;65.89
20394;BME280;10356;50.544;9.642;2022-10-03T14:37:43;99244.38;;;16.24;65.72
20394;BME280;10356;50.544;9.642;2022-10-03T14:40:20;99238.81;;;16.18;65.87
20394;BME280;10356;50.544;9.642;2022-10-03T14:43:10;99244.50;;;16.02;66.24
20394;BME280;10356;50.544;9.642;2022-10-03T14:45:46;99249.16;;;15.89;65.61
20394;BME280;10356;50.544;9.642;2022-10-03T14:48:16;99237.25;;;15.74;67.61
20394;BME280;10356;50.544;9.642;2022-10-03T14:50:46;99239.59;;;15.67;67.39
20394;BME280;10356;50.544;9.642;2022-10-03T14:53:17;99239.88;;;15.53;67.79
20394;BME280;10356;50.544;9.642;2022-10-03T14:55:54;99235.84;;;15.49;68.76
20394;BME280;10356;50.544;9.642;2022-10-03T14:58:24;99240.75;;;15.43;68.76
20394;BME280;10356;50.544;9.642;2022-10-03T15:01:02;99237.06;;;15.45;68.74
20394;BME280;10356;50.544;9.642;2022-10-03T15:03:32;99229.16;;;15.45;69.36
20394;BME280;10356;50.544;9.642;2022-10-03T15:06:34;99238.69;;;15.57;69.46
20394;BME280;10356;50.544;9.642;2022-10-03T15:09:04;99225.81;;;15.43;70.41
20394;BME280;10356;50.544;9.642;2022-10-03T15:11:35;99231.28;;;15.40;70.23
20394;BME280;10356;50.544;9.642;2022-10-03T15:14:05;99238.97;;;15.32;70.17
20394;BME280;10356;50.544;9.642;2022-10-03T15:16:39;99240.19;;;15.17;70.05
20394;BME280;10356;50.544;9.642;2022-10-03T15:19:12;99235.91;;;15.05;70.94
20394;BME280;10356;50.544;9.642;2022-10-03T15:21:43;99229.00;;;15.04;71.20
20394;BME280;10356;50.544;9.642;2022-10-03T15:24:17;99234.75;;;14.98;71.77
20394;BME280;10356;50.544;9.642;2022-10-03T15:26:48;99231.91;;;14.90;72.44
20394;BME280;10356;50.544;9.642;2022-10-03T15:29:17;99235.72;;;14.86;73.76
20394;BME280;10356;50.544;9.642;2022-10-03T15:31:47;99233.72;;;14.78;78.20
20394;BME280;10356;50.544;9.642;2022-10-03T15:34:16;99236.09;;;14.70;79.67
20394;BME280;10356;50.544;9.642;2022-10-03T15:36:47;99234.06;;;14.63;81.61
20394;BME280;10356;50.544;9.642;2022-10-03T15:39:20;99233.94;;;14.53;82.85
20394;BME280;10356;50.544;9.642;2022-10-03T15:41:52;99239.06;;;14.44;83.83
20394;BME280;10356;50.544;9.642;2022-10-03T15:44:22;99242.31;;;14.36;84.31
20394;BME280;10356;50.544;9.642;2022-10-03T15:46:57;99235.22;;;14.25;85.33
20394;BME280;10356;50.544;9.642;2022-10-03T15:49:28;99234.00;;;14.18;85.69
20394;BME280;10356;50.544;9.642;2022-10-03T15:51:57;99229.22;;;14.12;86.59
20394;BME280;10356;50.544;9.642;2022-10-03T15:54:28;99225.88;;;14.10;86.69
20394;BME280;10356;50.544;9.642;2022-10-03T15:56:57;99226.84;;;14.09;86.41
20394;BME280;10356;50.544;9.642;2022-10-03T15:59:28;99221.72;;;14.08;85.96
20394;BME280;10356;50.544;9.642;2022-10-03T16:02:02;99219.22;;;14.06;86.03
20394;BME280;10356;50.544;9.642;2022-10-03T16:04:34;99222.19;;;14.02;86.45
20394;BME280;10356;50.544;9.642;2022-10-03T16:07:05;99224.91;;;14.00;87.39
20394;BME280;10356;50.544;9.642;2022-10-03T16:09:43;99219.94;;;13.97;87.56
20394;BME280;10356;50.544;9.642;2022-10-03T16:12:39;99212.41;;;13.93;88.01